Time;durP1;ratioP1;P1;durP2;ratioP2;P2;SDS_P1;SDS_P2;PMS_P1;PMS_P2;Temp;Humidity;BMP_temperature;BMP_pressure;BME280_temperature;BME280_humidity;BME280_pressure;Samples;Min_cycle;Max_cycle;Signal;HPM_P1;HPM_P2
2022/10/27 00:00:18;;;;;;;;;3.75;3.75;;;;;22.21;51.28;101403.22;4977458;28;58840;-58
2022/10/27 00:02:43;;;;;;;;;4.00;3.00;;;;;22.23;50.98;101404.00;4977943;28;45372;-58
2022/10/27 00:05:09;;;;;;;;;4.00;3.00;;;;;22.21;51.13;101395.31;4978030;28;45714;-59
2022/10/27 00:07:38;;;;;;;;;3.50;3.00;;;;;22.22;51.10;101404.94;4978329;28;45567;-54
2022/10/27 00:10:04;;;;;;;;;2.00;2.00;;;;;22.22;51.17;101402.31;4983185;28;46378;-51
2022/10/27 00:12:31;;;;;;;;;4.00;3.00;;;;;22.21;51.24;101405.88;4983240;28;45623;-56
2022/10/27 00:14:56;;;;;;;;;4.75;3.75;;;;;22.21;51.27;101408.50;4978181;28;45233;-51
2022/10/27 00:17:21;;;;;;;;;2.50;2.50;;;;;22.21;51.26;101411.16;4977612;28;53555;-50
2022/10/27 00:19:46;;;;;;;;;3.00;2.00;;;;;22.21;51.31;101424.34;4977765;28;54609;-54
2022/10/27 00:22:12;;;;;;;;;3.00;3.00;;;;;22.21;51.08;101419.06;4978114;28;45393;-54
2022/10/27 00:24:37;;;;;;;;;3.50;3.50;;;;;22.23;51.25;101422.50;4978099;28;45824;-52
2022/10/27 00:27:03;;;;;;;;;2.00;2.00;;;;;22.22;51.03;101426.06;4977896;28;45500;-58
2022/10/27 00:29:28;;;;;;;;;3.75;3.75;;;;;22.21;51.11;101421.72;4977683;28;47234;-58
2022/10/27 00:31:53;;;;;;;;;3.25;3.25;;;;;22.21;51.10;101421.72;4977067;28;52570;-57
2022/10/27 00:34:18;;;;;;;;;2.50;2.25;;;;;22.21;51.24;101421.72;4975783;28;56354;-59
2022/10/27 00:36:44;;;;;;;;;5.00;3.00;;;;;22.21;51.11;101410.31;4979721;28;45332;-58
2022/10/27 00:39:09;;;;;;;;;3.00;3.00;;;;;22.20;51.14;101409.47;4985280;28;56598;-58
2022/10/27 00:41:39;;;;;;;;;2.25;2.25;;;;;22.20;50.96;101409.47;4988169;28;45241;-58
2022/10/27 00:44:28;;;;;;;;;3.00;3.00;;;;;22.20;51.26;101414.75;4984205;28;45300;-56
2022/10/27 00:46:54;;;;;;;;;2.50;2.50;;;;;22.19;50.94;101410.41;4993585;28;45448;-58
2022/10/27 00:49:25;;;;;;;;;3.75;3.75;;;;;22.19;50.96;101407.75;4988885;28;45352;-57
2022/10/27 00:51:58;;;;;;;;;3.50;3.50;;;;;22.20;50.83;101405.97;4981862;28;45249;-53
2022/10/27 00:54:28;;;;;;;;;5.00;3.25;;;;;22.21;51.26;101412.94;4981408;28;45919;-55
2022/10/27 00:56:54;;;;;;;;;3.50;3.00;;;;;22.19;51.19;101413.03;4980930;28;45468;-58
2022/10/27 00:59:21;;;;;;;;;3.00;3.00;;;;;22.19;51.33;101402.47;4980831;28;46528;-57
2022/10/27 01:01:49;;;;;;;;;2.50;2.50;;;;;22.19;50.88;101406.91;4980649;28;45802;-55
2022/10/27 01:04:20;;;;;;;;;3.75;2.25;;;;;22.19;50.89;101405.13;4980903;28;45352;-55
2022/10/27 01:06:46;;;;;;;;;3.75;3.00;;;;;22.19;51.05;101396.34;4988114;28;45542;-51
2022/10/27 01:09:12;;;;;;;;;2.00;1.75;;;;;22.17;51.10;101396.44;4982367;28;46458;-55
2022/10/27 01:11:37;;;;;;;;;3.00;3.00;;;;;22.19;51.11;101397.22;4985530;28;45217;-56
2022/10/27 01:14:03;;;;;;;;;4.25;2.25;;;;;22.18;50.83;101392.84;4993207;28;45442;-58
2022/10/27 01:16:53;;;;;;;;;4.25;4.00;;;;;22.18;51.17;101398.13;4982503;28;45535;-57
2022/10/27 01:19:55;;;;;;;;;3.00;3.00;;;;;22.18;51.16;101398.13;4980506;28;45525;-58
2022/10/27 01:22:23;;;;;;;;;2.00;2.00;;;;;22.17;51.09;101393.78;4980015;28;46246;-56
2022/10/27 01:25:07;;;;;;;;;3.50;2.00;;;;;22.17;51.17;101385.00;4979735;28;45399;-58
2022/10/27 01:27:48;;;;;;;;;2.00;2.00;;;;;22.17;51.24;101391.16;4979687;28;45285;-53
2022/10/27 01:30:18;;;;;;;;;4.00;0.00;;;;;22.17;51.00;101383.22;4980152;28;46492;-54
2022/10/27 01:33:09;;;;;;;;;3.75;3.00;;;;;22.17;51.07;101390.28;4980099;28;45439;-60
2022/10/27 01:36:01;;;;;;;;;3.75;2.00;;;;;22.16;50.88;101375.41;4987036;28;45297;-52
2022/10/27 01:38:30;;;;;;;;;2.25;2.25;;;;;22.17;51.31;101377.94;4989227;28;45484;-52
2022/10/27 01:41:16;;;;;;;;;3.00;2.50;;;;;22.16;51.03;101384.16;4980899;28;45730;-49
2022/10/27 01:43:48;;;;;;;;;4.00;2.75;;;;;22.17;51.07;101388.50;4980627;28;45728;-56
2022/10/27 01:46:15;;;;;;;;;2.00;2.00;;;;;22.16;51.27;101384.16;4980228;28;45175;-53
2022/10/27 01:48:41;;;;;;;;;5.00;3.00;;;;;22.17;51.05;101385.88;4980560;28;45317;-48
2022/10/27 01:51:06;;;;;;;;;2.00;2.00;;;;;22.17;51.16;101377.94;4978476;28;46756;-55
2022/10/27 01:53:37;;;;;;;;;3.00;2.00;;;;;22.16;50.98;101384.16;4979726;28;45338;-58
2022/10/27 01:56:03;;;;;;;;;2.25;2.00;;;;;22.17;51.16;101391.16;4980170;28;45390;-58
2022/10/27 01:58:46;;;;;;;;;2.33;2.33;;;;;22.16;50.95;101373.59;4980347;28;45592;-57
2022/10/27 02:01:48;;;;;;;;;2.00;2.00;;;;;22.16;50.81;101378.03;4984355;28;46178;-51
2022/10/27 02:04:24;;;;;;;;;3.50;3.00;;;;;22.14;50.70;101372.81;4983562;28;45334;-56
2022/10/27 02:06:59;;;;;;;;;2.00;2.00;;;;;22.14;50.95;101378.09;4979319;28;45408;-57
2022/10/27 02:09:30;;;;;;;;;3.00;3.00;;;;;22.15;51.02;101371.06;4979448;28;45404;-58
2022/10/27 02:12:00;;;;;;;;;2.00;2.00;;;;;22.14;51.04;101366.69;4979556;28;45640;-58
2022/10/27 02:14:25;;;;;;;;;3.00;2.00;;;;;22.13;51.11;101362.34;4979343;28;45716;-59
2022/10/27 02:16:52;;;;;;;;;1.75;1.75;;;;;22.12;50.79;101366.78;4979996;28;45496;-56
2022/10/27 02:19:18;;;;;;;;;2.75;2.75;;;;;22.13;51.14;101365.84;4980234;28;45515;-57
2022/10/27 02:21:46;;;;;;;;;4.00;2.00;;;;;22.13;51.06;101352.63;4980220;28;46180;-58
2022/10/27 02:24:11;;;;;;;;;1.50;1.50;;;;;22.14;50.86;101349.06;4979622;28;45347;-57
2022/10/27 02:26:48;;;;;;;;;2.25;2.25;;;;;22.13;50.88;101349.16;4979104;28;45724;-58
2022/10/27 02:29:23;;;;;;;;;1.75;1.75;;;;;22.14;50.80;101349.06;4984304;28;45531;-58
2022/10/27 02:31:52;;;;;;;;;3.00;3.00;;;;;22.13;50.98;101347.34;4984043;28;45432;-57
2022/10/27 02:34:18;;;;;;;;;4.00;2.00;;;;;22.13;50.89;101336.78;4979300;28;45361;-58
2022/10/27 02:36:44;;;;;;;;;4.00;2.50;;;;;22.13;50.97;101338.59;4979408;28;45531;-58
2022/10/27 02:39:10;;;;;;;;;2.75;2.50;;;;;22.13;51.02;101339.44;4980101;28;45528;-56
2022/10/27 02:41:35;;;;;;;;;2.25;2.25;;;;;22.14;50.84;101337.66;4979280;28;46345;-59
2022/10/27 02:44:00;;;;;;;;;3.00;3.00;;;;;22.14;50.97;101338.50;4978877;28;51096;-57
2022/10/27 02:46:25;;;;;;;;;2.00;2.00;;;;;22.13;50.95;101334.16;4979499;28;45328;-55
2022/10/27 02:48:51;;;;;;;;;1.50;1.50;;;;;22.14;50.95;101332.38;4979588;28;45617;-57
2022/10/27 02:51:16;;;;;;;;;2.00;2.00;;;;;22.14;51.03;101342.94;4978337;28;58113;-52
2022/10/27 02:53:41;;;;;;;;;2.50;2.50;;;;;22.13;50.79;101342.06;4978949;28;45432;-58
2022/10/27 02:56:07;;;;;;;;;3.25;2.00;;;;;22.13;50.63;101342.06;4980642;28;45463;-57
2022/10/27 02:58:33;;;;;;;;;2.00;2.00;;;;;22.14;50.86;101346.44;4986082;28;45494;-57
2022/10/27 03:00:59;;;;;;;;;3.75;3.00;;;;;22.13;50.89;101342.06;4981114;28;45544;-56
2022/10/27 03:03:24;;;;;;;;;3.00;2.00;;;;;22.12;50.69;101343.00;4977485;28;45320;-59
2022/10/27 03:05:50;;;;;;;;;3.00;2.00;;;;;22.12;50.93;101347.44;4984417;28;45362;-58
2022/10/27 03:08:15;;;;;;;;;2.00;2.00;;;;;22.13;50.99;101344.72;4996721;28;45431;-54
2022/10/27 03:10:42;;;;;;;;;2.00;2.00;;;;;22.13;50.78;101341.25;4985558;28;46426;-58
2022/10/27 03:13:07;;;;;;;;;2.00;2.00;;;;;22.12;50.78;101340.38;4981032;28;45739;-59
2022/10/27 03:15:33;;;;;;;;;2.00;2.00;;;;;22.12;50.77;101342.16;4998181;28;44728;-54
2022/10/27 03:17:58;;;;;;;;;2.00;2.00;;;;;22.12;50.81;101328.97;5000296;28;44809;-54
2022/10/27 03:20:24;;;;;;;;;2.67;2.67;;;;;22.12;50.81;101323.69;4999565;28;65976;-58
2022/10/27 03:22:49;;;;;;;;;2.00;1.75;;;;;22.11;50.78;101330.75;4988486;28;45284;-55
2022/10/27 03:25:14;;;;;;;;;2.50;1.75;;;;;22.10;50.87;101331.72;4984617;28;45257;-59
2022/10/27 03:27:42;;;;;;;;;2.00;2.00;;;;;22.09;50.80;101330.00;4991133;28;45618;-56
2022/10/27 03:30:11;;;;;;;;;3.25;2.00;;;;;22.11;50.72;101338.66;4979521;28;46531;-49
2022/10/27 03:32:37;;;;;;;;;2.00;2.00;;;;;22.11;50.60;101338.66;4978780;28;45337;-50
2022/10/27 03:35:03;;;;;;;;;2.75;2.75;;;;;22.10;50.78;101339.63;4978914;28;45270;-48
2022/10/27 03:37:28;;;;;;;;;2.00;2.00;;;;;22.10;50.75;101339.63;4979013;28;45218;-58
2022/10/27 03:39:54;;;;;;;;;2.00;2.00;;;;;22.10;50.87;101342.25;4978198;28;45456;-58
2022/10/27 03:42:19;;;;;;;;;3.00;3.00;;;;;22.07;50.81;101335.34;4978033;28;62852;-55
2022/10/27 03:44:44;;;;;;;;;1.50;1.25;;;;;22.08;50.73;101334.41;4978194;28;54750;-57
2022/10/27 03:47:09;;;;;;;;;3.00;3.00;;;;;22.08;50.61;101334.41;4978516;28;45563;-53
2022/10/27 03:49:35;;;;;;;;;2.00;2.00;;;;;22.06;50.74;101341.56;4977888;28;59103;-58
2022/10/27 03:52:00;;;;;;;;;2.00;2.00;;;;;22.08;50.77;101341.50;4979323;28;45399;-52
2022/10/27 03:54:29;;;;;;;;;0.75;0.75;;;;;22.06;50.69;101336.28;4983575;28;45382;-56
2022/10/27 03:56:54;;;;;;;;;3.00;2.00;;;;;22.08;50.79;101333.56;4984808;28;45400;-58
2022/10/27 03:59:19;;;;;;;;;2.25;2.00;;;;;22.07;50.86;101332.69;4976332;28;45349;-51
2022/10/27 04:01:45;;;;;;;;;3.00;3.00;;;;;22.10;50.85;101334.34;4978571;28;45382;-58
2022/10/27 04:04:11;;;;;;;;;2.00;2.00;;;;;22.09;50.80;101335.28;4978342;28;45345;-57
2022/10/27 04:06:36;;;;;;;;;3.25;3.25;;;;;22.08;50.65;101331.78;4978222;28;45602;-57
2022/10/27 04:09:02;;;;;;;;;2.00;2.00;;;;;22.09;50.82;101332.63;4977851;28;51079;-56
2022/10/27 04:11:27;;;;;;;;;3.00;1.75;;;;;22.08;50.82;101339.69;4979323;28;45392;-58
2022/10/27 04:13:52;;;;;;;;;5.25;3.00;;;;;22.09;50.76;101332.63;4978595;28;45389;-58
2022/10/27 04:16:17;;;;;;;;;4.00;2.00;;;;;22.09;50.83;101340.56;4978408;28;47481;-57
2022/10/27 04:18:43;;;;;;;;;2.75;2.00;;;;;22.08;50.74;101338.84;4978789;28;46532;-58
2022/10/27 04:21:08;;;;;;;;;4.25;2.75;;;;;22.08;50.68;101333.56;4982051;28;45337;-59
2022/10/27 04:23:33;;;;;;;;;1.00;1.00;;;;;22.08;50.81;101341.50;4982698;28;45209;-50
2022/10/27 04:25:59;;;;;;;;;3.00;2.00;;;;;22.09;51.07;101338.75;4977385;28;45507;-51
2022/10/27 04:28:24;;;;;;;;;2.00;2.00;;;;;22.09;51.14;101348.47;4976834;28;46627;-58
2022/10/27 04:30:50;;;;;;;;;2.75;1.75;;;;;22.09;51.03;101343.19;4977526;28;45349;-57
2022/10/27 04:33:15;;;;;;;;;3.00;1.50;;;;;22.10;50.88;101331.72;4976851;28;45771;-59
2022/10/27 04:35:41;;;;;;;;;4.75;2.00;;;;;22.09;50.73;101332.63;4978213;28;45299;-52
2022/10/27 04:38:07;;;;;;;;;2.25;2.25;;;;;22.11;50.99;101328.09;4985010;28;45258;-56
2022/10/27 04:40:32;;;;;;;;;3.25;2.75;;;;;22.11;50.99;101322.81;4992679;28;45237;-57
2022/10/27 04:42:58;;;;;;;;;4.00;1.50;;;;;22.11;50.96;101320.19;4991422;28;45364;-58
2022/10/27 04:45:23;;;;;;;;;3.50;2.00;;;;;22.11;51.06;101317.53;4977529;28;45449;-54
2022/10/27 04:47:49;;;;;;;;;3.00;3.00;;;;;22.11;51.08;101317.53;4976879;28;46533;-58
2022/10/27 04:50:15;;;;;;;;;3.50;2.25;;;;;22.12;51.14;101313.13;4981975;28;45356;-56
2022/10/27 04:52:40;;;;;;;;;2.25;2.00;;;;;22.11;51.32;101314.91;4979241;28;45432;-58
2022/10/27 04:55:07;;;;;;;;;3.75;3.00;;;;;22.11;50.91;101322.81;4978596;28;45417;-57
2022/10/27 04:57:33;;;;;;;;;4.50;4.50;;;;;22.09;51.58;101324.72;4980715;28;46463;-53
2022/10/27 04:59:59;;;;;;;;;6.50;3.50;;;;;22.03;51.46;101325.91;4986008;28;45250;-56
2022/10/27 05:02:24;;;;;;;;;6.00;4.25;;;;;22.01;52.00;101326.91;4990196;28;48141;-56
2022/10/27 05:04:49;;;;;;;;;3.75;3.50;;;;;21.98;52.26;101320.00;4996227;28;45477;-54
2022/10/27 05:07:15;;;;;;;;;5.67;3.67;;;;;21.97;52.29;101326.22;4990569;28;62920;-54
2022/10/27 05:09:40;;;;;;;;;2.00;2.00;;;;;21.96;52.33;101324.50;4989239;28;45166;-49
2022/10/27 05:12:05;;;;;;;;;3.00;3.00;;;;;21.98;52.33;101332.38;4990117;28;45259;-56
2022/10/27 05:14:31;;;;;;;;;3.00;3.00;;;;;21.98;52.44;101321.81;4991605;28;45419;-55
2022/10/27 05:16:56;;;;;;;;;7.25;3.00;;;;;21.99;52.34;101318.25;4988227;28;45401;-57
2022/10/27 05:19:21;;;;;;;;;4.25;3.00;;;;;21.98;52.29;101311.25;4983609;28;45215;-56
2022/10/27 05:21:46;;;;;;;;;6.25;3.25;;;;;21.99;52.34;101310.31;4982811;28;45254;-56
2022/10/27 05:24:12;;;;;;;;;4.50;4.00;;;;;21.98;52.21;101308.59;4981457;28;45563;-56
2022/10/27 05:26:37;;;;;;;;;2.75;2.00;;;;;21.96;52.13;101306.03;4988006;28;45617;-55
2022/10/27 05:29:02;;;;;;;;;5.25;3.00;;;;;21.96;52.15;101305.19;4985454;28;45418;-56
2022/10/27 05:31:28;;;;;;;;;4.00;4.00;;;;;21.96;52.46;101305.19;4998604;28;45262;-55
2022/10/27 05:33:53;;;;;;;;;2.75;2.00;;;;;21.95;52.07;101306.97;4993763;28;45309;-56
2022/10/27 05:36:19;;;;;;;;;4.00;4.00;;;;;21.93;51.76;101304.41;4980625;28;45384;-56
2022/10/27 05:38:45;;;;;;;;;4.50;3.00;;;;;21.92;51.96;101304.50;4979871;28;45372;-56
2022/10/27 05:41:11;;;;;;;;;3.50;3.00;;;;;21.93;51.91;101304.41;4989211;28;45677;-55
2022/10/27 05:43:37;;;;;;;;;3.00;3.00;;;;;21.91;51.71;101295.72;4985314;28;45606;-56
2022/10/27 05:46:03;;;;;;;;;2.00;2.00;;;;;21.90;51.65;101304.56;4987066;28;46521;-55
2022/10/27 05:48:28;;;;;;;;;4.25;2.50;;;;;21.88;51.65;101293.25;4983856;28;45233;-55
2022/10/27 05:50:54;;;;;;;;;3.00;3.00;;;;;21.87;51.82;101296.84;4982277;28;45333;-56
2022/10/27 05:53:20;;;;;;;;;4.25;3.00;;;;;21.87;51.35;101304.75;4979521;28;45298;-55
2022/10/27 05:55:45;;;;;;;;;5.00;3.75;;;;;21.86;51.63;101303.06;4979396;28;46834;-55
2022/10/27 05:58:11;;;;;;;;;4.00;4.00;;;;;21.84;51.57;101296.13;4979584;28;45332;-58
2022/10/27 06:00:37;;;;;;;;;6.00;4.00;;;;;21.85;51.12;101287.28;4979779;28;45273;-55
2022/10/27 06:03:06;;;;;;;;;3.00;3.00;;;;;21.83;51.35;101279.47;4978318;28;45567;-54
2022/10/27 06:05:34;;;;;;;;;3.00;2.75;;;;;21.85;51.35;101276.72;4979066;28;47372;-54
2022/10/27 06:07:59;;;;;;;;;4.50;4.00;;;;;21.84;51.46;101278.53;4979109;28;45302;-56
2022/10/27 06:10:26;;;;;;;;;4.75;4.00;;;;;21.83;51.32;101281.28;4979617;28;45574;-55
2022/10/27 06:12:58;;;;;;;;;5.00;4.00;;;;;21.81;51.04;101278.69;4985192;28;45552;-56
2022/10/27 06:15:24;;;;;;;;;4.50;3.25;;;;;21.80;51.14;101279.63;4984972;28;45565;-56
2022/10/27 06:17:55;;;;;;;;;4.00;3.00;;;;;21.78;51.46;101282.34;4979266;28;45352;-55
2022/10/27 06:20:21;;;;;;;;;3.75;2.50;;;;;21.79;51.07;101288.47;4979437;28;45332;-55
2022/10/27 06:22:46;;;;;;;;;7.00;4.00;;;;;21.79;50.81;101283.19;4979534;28;45305;-55
2022/10/27 06:25:12;;;;;;;;;3.75;3.00;;;;;21.80;51.20;101276.97;4979143;28;45667;-57
2022/10/27 06:27:37;;;;;;;;;5.25;3.50;;;;;21.80;51.04;101270.88;4977799;28;45327;-56
2022/10/27 06:30:03;;;;;;;;;3.75;1.00;;;;;21.82;50.93;101269.00;4978915;28;45340;-53
2022/10/27 06:32:28;;;;;;;;;3.50;3.25;;;;;21.83;51.02;101262.78;4979485;28;45326;-56
2022/10/27 06:34:53;;;;;;;;;5.00;3.75;;;;;21.84;51.06;101256.56;4978674;28;49742;-53
2022/10/27 06:37:19;;;;;;;;;3.75;3.75;;;;;21.84;51.18;101259.19;4978899;28;45272;-63
2022/10/27 06:39:44;;;;;;;;;4.75;4.00;;;;;21.85;51.85;101259.13;4979490;28;45711;-49
2022/10/27 06:42:09;;;;;;;;;4.75;4.00;;;;;21.87;51.28;101262.53;4985197;28;45242;-57
2022/10/27 06:44:35;;;;;;;;;5.75;4.00;;;;;21.89;51.08;101262.44;4978923;28;59714;-54
2022/10/27 06:47:00;;;;;;;;;5.00;4.25;;;;;21.86;51.26;101260.84;4978449;28;48128;-54
2022/10/27 06:49:25;;;;;;;;;2.00;2.00;;;;;21.89;51.04;101258.00;4975433;28;52330;-53
2022/10/27 06:51:51;;;;;;;;;4.00;4.00;;;;;21.90;51.01;101261.53;4978149;28;45311;-54
2022/10/27 06:54:16;;;;;;;;;4.75;4.00;;;;;21.89;50.66;101263.28;4978209;28;47363;-55
2022/10/27 06:56:41;;;;;;;;;4.25;3.75;;;;;21.89;50.68;101263.28;4979188;28;45408;-53
2022/10/27 06:59:07;;;;;;;;;7.00;5.00;;;;;21.88;50.73;101256.31;4979756;28;45174;-54
2022/10/27 07:01:32;;;;;;;;;3.00;3.00;;;;;21.86;50.73;101258.19;4978576;28;45437;-56
2022/10/27 07:03:57;;;;;;;;;5.50;5.00;;;;;21.87;50.52;101262.53;4977796;28;52931;-56
2022/10/27 07:06:23;;;;;;;;;5.00;5.00;;;;;21.87;50.70;101267.81;4978531;28;45396;-56
2022/10/27 07:08:51;;;;;;;;;9.00;4.25;;;;;21.87;50.43;101277.50;4983805;28;56257;-54
2022/10/27 07:11:16;;;;;;;;;6.75;5.50;;;;;21.85;50.64;101282.88;4982586;28;45314;-55
2022/10/27 07:13:42;;;;;;;;;3.00;3.00;;;;;21.86;50.74;101292.50;4977973;28;46294;-56
2022/10/27 07:16:08;;;;;;;;;7.00;4.25;;;;;21.86;50.55;101299.56;4977829;28;45274;-56
2022/10/27 07:18:33;;;;;;;;;5.00;4.50;;;;;21.86;50.60;101296.91;4977779;28;45318;-54
2022/10/27 07:21:00;;;;;;;;;3.50;3.50;;;;;21.84;50.50;101294.38;4978476;28;45218;-53
2022/10/27 07:23:28;;;;;;;;;9.00;6.00;;;;;21.85;50.41;101290.78;4977623;28;47548;-54
2022/10/27 07:25:53;;;;;;;;;7.25;5.75;;;;;21.86;50.34;101292.50;4977785;28;45747;-55
2022/10/27 07:28:19;;;;;;;;;4.50;4.25;;;;;21.86;50.22;101305.69;4979921;28;45475;-53
2022/10/27 07:30:46;;;;;;;;;7.75;5.00;;;;;21.85;50.27;101321.59;4994502;28;45413;-53
2022/10/27 07:33:11;;;;;;;;;7.75;5.00;;;;;21.85;50.41;101330.38;4979147;28;45494;-54
2022/10/27 07:35:37;;;;;;;;;4.50;4.50;;;;;21.85;50.41;101351.50;4990696;28;45289;-52
2022/10/27 07:38:03;;;;;;;;;5.00;4.50;;;;;21.87;50.42;101356.69;4989305;28;45262;-47
2022/10/27 07:40:29;;;;;;;;;4.50;4.50;;;;;21.86;50.29;101340.00;4993396;28;45162;-51
2022/10/27 07:42:59;;;;;;;;;3.75;3.75;;;;;21.87;50.30;101330.28;4995114;28;45485;-56
2022/10/27 07:45:26;;;;;;;;;8.00;4.00;;;;;21.88;50.06;101342.53;4994689;28;45380;-56
2022/10/27 07:47:53;;;;;;;;;6.00;5.00;;;;;21.90;50.30;101345.97;4984664;28;45431;-52
2022/10/27 07:50:21;;;;;;;;;4.00;4.00;;;;;21.90;50.26;101351.25;4988745;28;45570;-48
2022/10/27 07:52:51;;;;;;;;;6.50;4.50;;;;;21.91;50.25;101345.88;4996045;28;45322;-50
2022/10/27 07:55:19;;;;;;;;;4.00;4.00;;;;;21.90;50.30;101341.53;4988198;28;45400;-52
2022/10/27 07:57:45;;;;;;;;;4.25;4.25;;;;;21.89;50.07;101331.91;4979749;28;45349;-52
2022/10/27 08:00:16;;;;;;;;;7.00;5.00;;;;;21.91;50.29;101326.56;4981218;28;45449;-49
2022/10/27 08:02:42;;;;;;;;;6.75;5.00;;;;;21.93;50.17;101322.91;4978664;28;46962;-51
2022/10/27 08:05:08;;;;;;;;;5.50;5.50;;;;;21.89;50.12;101316.06;4982916;28;45254;-53
2022/10/27 08:07:37;;;;;;;;;6.00;4.00;;;;;21.92;50.29;101330.91;4981139;28;45412;-48
2022/10/27 08:10:06;;;;;;;;;5.00;5.00;;;;;21.91;50.20;101337.94;4978653;28;45426;-54
2022/10/27 08:12:31;;;;;;;;;5.50;4.50;;;;;21.92;50.23;101333.53;4978045;28;45513;-54
2022/10/27 08:14:56;;;;;;;;;7.50;6.00;;;;;21.92;50.45;101330.91;4978029;28;45344;-56
2022/10/27 08:17:25;;;;;;;;;6.50;5.00;;;;;21.92;50.13;101339.66;4977181;28;45309;-53
2022/10/27 08:19:50;;;;;;;;;4.50;4.50;;;;;21.91;50.21;101332.69;4977503;28;45325;-54
2022/10/27 08:22:15;;;;;;;;;5.00;4.00;;;;;21.92;50.08;101339.66;4977465;28;46278;-53
2022/10/27 08:24:41;;;;;;;;;5.67;5.67;;;;;21.93;49.85;101338.72;4976706;28;62017;-54
2022/10/27 08:27:06;;;;;;;;;6.25;6.25;;;;;21.92;49.83;101344.94;4977779;28;45346;-55
2022/10/27 08:29:31;;;;;;;;;8.00;5.75;;;;;21.92;50.21;101344.09;4977568;28;45315;-56
2022/10/27 08:31:57;;;;;;;;;7.25;6.00;;;;;21.93;50.11;101348.44;4978923;28;47512;-55
2022/10/27 08:34:22;;;;;;;;;5.00;4.25;;;;;21.93;50.16;101346.66;4983246;28;45752;-55
2022/10/27 08:36:48;;;;;;;;;4.75;4.75;;;;;21.93;50.21;101346.66;4978152;28;45356;-55
2022/10/27 08:39:13;;;;;;;;;9.00;5.00;;;;;21.93;49.90;101346.66;4978274;28;45376;-57
2022/10/27 08:42:06;;;;;;;;;7.50;5.00;;;;;21.94;50.09;101352.75;4979945;28;46316;-55
2022/10/27 08:44:40;;;;;;;;;4.00;4.00;;;;;21.92;50.09;101355.50;4988151;28;45150;-53
2022/10/27 08:47:14;;;;;;;;;6.25;5.00;;;;;21.94;50.00;101360.69;4994634;28;45317;-55
2022/10/27 08:49:46;;;;;;;;;5.50;5.50;;;;;21.95;50.05;101351.84;4993062;28;45241;-55
2022/10/27 08:52:21;;;;;;;;;5.50;5.50;;;;;21.96;50.20;101353.53;4985255;28;45398;-55
2022/10/27 08:54:57;;;;;;;;;5.50;5.00;;;;;21.98;49.83;101364.03;4981317;28;45253;-56
2022/10/27 08:57:32;;;;;;;;;4.50;4.50;;;;;21.97;49.93;101363.16;4977708;28;45355;-55
2022/10/27 08:59:59;;;;;;;;;7.75;6.00;;;;;21.99;50.02;101358.66;4982450;28;45327;-56
2022/10/27 09:03:02;;;;;;;;;4.00;4.00;;;;;21.99;50.14;101365.75;4985284;28;47002;-55
2022/10/27 09:05:57;;;;;;;;;9.50;8.00;;;;;21.95;49.71;101365.03;4980825;28;45250;-54
2022/10/27 09:08:43;;;;;;;;;8.00;7.00;;;;;21.91;49.69;101361.72;4973139;28;46199;-54
2022/10/27 09:11:11;;;;;;;;;6.00;6.00;;;;;21.87;49.86;101373.38;4979471;28;45631;-55
2022/10/27 09:14:04;;;;;;;;;8.00;8.00;;;;;21.82;49.78;101374.56;4979849;28;45320;-54
2022/10/27 09:16:54;;;;;;;;;9.25;7.50;;;;;21.78;49.82;101374.69;4979786;28;45327;-54
2022/10/27 09:19:26;;;;;;;;;5.75;5.75;;;;;21.75;49.95;101366.94;4980035;28;45353;-55
2022/10/27 09:21:52;;;;;;;;;11.00;7.50;;;;;21.73;50.05;101365.31;4979731;28;45332;-55
2022/10/27 09:24:21;;;;;;;;;8.50;7.25;;;;;21.71;49.79;101362.78;4981403;28;45360;-55
2022/10/27 09:26:47;;;;;;;;;8.75;7.00;;;;;21.69;50.00;101369.03;4981453;28;45320;-56
2022/10/27 09:29:19;;;;;;;;;9.00;9.00;;;;;21.67;49.95;101376.19;4986725;28;46108;-56
2022/10/27 09:31:56;;;;;;;;;9.75;8.00;;;;;21.66;50.04;101383.25;4980858;28;45433;-54
2022/10/27 09:34:44;;;;;;;;;8.25;6.25;;;;;21.67;50.04;101392.00;4979671;28;45278;-55
2022/10/27 09:37:15;;;;;;;;;12.50;9.75;;;;;21.65;50.22;101383.34;4979605;28;45399;-55
2022/10/27 09:39:45;;;;;;;;;11.25;9.00;;;;;21.64;50.32;101381.63;4980258;28;45280;-55
2022/10/27 09:42:11;;;;;;;;;9.00;9.00;;;;;21.64;50.38;101387.75;4980295;28;45410;-55
2022/10/27 09:44:36;;;;;;;;;9.50;8.25;;;;;21.62;50.10;101382.56;4980063;28;46546;-55
2022/10/27 09:47:01;;;;;;;;;10.50;10.00;;;;;21.62;50.11;101393.09;4980075;28;45369;-55
2022/10/27 09:49:33;;;;;;;;;12.50;11.25;;;;;21.63;50.24;101386.03;4979960;28;45458;-55
2022/10/27 09:52:09;;;;;;;;;10.50;9.75;;;;;21.64;50.65;101373.72;4980791;28;45410;-54
2022/10/27 09:54:38;;;;;;;;;9.75;8.00;;;;;21.64;50.51;101371.06;4981696;28;47138;-56
2022/10/27 09:57:18;;;;;;;;;11.50;7.00;;;;;21.65;50.29;101357.81;4985437;28;45459;-54
2022/10/27 09:59:59;;;;;;;;;9.00;9.00;;;;;21.65;50.40;101351.69;4980285;28;45379;-55
2022/10/27 10:02:30;;;;;;;;;10.00;8.50;;;;;21.65;50.56;101349.03;4987590;28;45357;-55
2022/10/27 10:04:57;;;;;;;;;10.25;8.00;;;;;21.65;50.28;101357.81;4987200;28;45429;-54
2022/10/27 10:07:42;;;;;;;;;9.00;7.50;;;;;21.65;50.29;101355.16;4983161;28;45532;-56
2022/10/27 10:10:24;;;;;;;;;7.75;7.00;;;;;21.64;50.29;101371.06;4985405;28;45606;-56
2022/10/27 10:13:21;;;;;;;;;8.75;8.75;;;;;21.65;50.58;101367.50;4985015;28;45150;-55
2022/10/27 10:15:47;;;;;;;;;8.25;8.00;;;;;21.66;50.56;101371.84;4978774;28;45364;-56
2022/10/27 10:18:28;;;;;;;;;10.75;7.00;;;;;21.67;50.50;101376.19;4979336;28;45496;-55
2022/10/27 10:21:00;;;;;;;;;8.25;7.25;;;;;21.68;50.19;101369.97;4979398;28;45735;-55
2022/10/27 10:23:30;;;;;;;;;8.00;6.00;;;;;21.68;50.40;101375.25;4984298;28;45445;-56
2022/10/27 10:25:57;;;;;;;;;9.00;5.25;;;;;21.66;50.47;101364.78;4984411;28;46259;-56
2022/10/27 10:28:53;;;;;;;;;10.50;9.00;;;;;21.68;50.39;101375.25;4980395;28;45366;-55
2022/10/27 10:31:25;;;;;;;;;7.75;6.00;;;;;21.68;50.42;101389.31;4978703;28;45386;-55
2022/10/27 10:33:53;;;;;;;;;10.25;7.00;;;;;21.70;50.24;101379.53;4980073;28;45266;-56
2022/10/27 10:36:35;;;;;;;;;9.75;8.00;;;;;21.70;50.32;101376.03;4980020;28;46570;-55
2022/10/27 10:39:39;;;;;;;;;10.00;7.00;;;;;21.71;50.46;101373.31;4979634;28;45309;-55
2022/10/27 10:42:17;;;;;;;;;8.50;8.50;;;;;21.72;50.23;101379.44;4958151;28;45406;-54
2022/10/27 10:44:43;;;;;;;;;7.25;5.25;;;;;21.73;50.65;101391.69;4958861;28;45544;-56
2022/10/27 10:47:26;;;;;;;;;8.75;8.00;;;;;21.74;50.31;101393.41;4970068;28;45998;-54
2022/10/27 10:49:55;;;;;;;;;8.00;6.50;;;;;21.74;50.65;101380.22;4981127;28;45326;-55
2022/10/27 10:52:36;;;;;;;;;7.50;5.75;;;;;21.75;50.70;101384.56;4985364;28;45363;-52
2022/10/27 10:55:37;;;;;;;;;7.25;6.25;;;;;21.75;50.51;101368.75;4979428;28;45230;-55
2022/10/27 10:58:02;;;;;;;;;6.00;6.00;;;;;21.75;50.50;101364.28;4979074;28;46377;-53
2022/10/27 11:00:28;;;;;;;;;4.75;4.75;;;;;21.77;50.60;101366.88;4979104;28;45343;-54
2022/10/27 11:03:18;;;;;;;;;9.00;8.00;;;;;21.77;50.55;101361.59;4978967;28;46548;-55
2022/10/27 11:05:55;;;;;;;;;8.00;7.00;;;;;21.78;50.62;101373.84;4979693;28;45970;-55
2022/10/27 11:08:35;;;;;;;;;7.50;7.00;;;;;21.80;50.68;101376.41;4978871;28;46379;-55
2022/10/27 11:11:03;;;;;;;;;8.50;7.50;;;;;21.80;50.64;101377.25;4979008;28;45742;-55
2022/10/27 11:13:37;;;;;;;;;9.00;6.50;;;;;21.80;50.84;101374.59;4979155;28;45301;-53
2022/10/27 11:16:06;;;;;;;;;2.50;1.50;;;;;21.82;50.63;101364.84;4978933;28;45444;-54
2022/10/27 11:18:46;;;;;;;;;11.00;7.25;;;;;21.83;50.36;101344.59;4982207;28;48285;-55
2022/10/27 11:21:21;;;;;;;;;7.75;7.25;;;;;21.84;50.61;101344.50;4983900;28;45783;-55
2022/10/27 11:23:50;;;;;;;;;6.75;6.25;;;;;21.85;50.36;101340.94;4978620;28;45238;-54
2022/10/27 11:26:20;;;;;;;;;9.00;6.50;;;;;21.86;50.90;101355.84;4979078;28;45487;-52
2022/10/27 11:29:11;;;;;;;;;11.50;7.00;;;;;21.89;50.50;101353.00;4978645;28;46696;-53
2022/10/27 11:31:47;;;;;;;;;7.25;7.25;;;;;21.90;50.61;101343.31;4978663;28;45841;-53
2022/10/27 11:34:15;;;;;;;;;7.00;7.00;;;;;21.92;50.70;101350.22;4978495;28;45516;-54